createdAt,value
2019-02-04T00:01:29.768Z,4.62
2019-02-04T00:03:59.371Z,3.58
2019-02-04T00:06:28.840Z,4.30
2019-02-04T00:08:58.489Z,4.33
2019-02-04T00:11:28.038Z,4.50
2019-02-04T00:13:57.982Z,4.42
2019-02-04T00:16:27.763Z,3.87
2019-02-04T00:18:57.346Z,5.03
2019-02-04T00:21:27.017Z,3.70
2019-02-04T00:23:56.718Z,4.50
2019-02-04T00:26:26.213Z,4.62
2019-02-04T00:28:55.697Z,4.10
2019-02-04T00:31:25.199Z,3.95
2019-02-04T00:33:54.731Z,3.75
2019-02-04T00:36:24.226Z,3.62
2019-02-04T00:38:53.708Z,3.80
2019-02-04T00:41:23.384Z,4.00
2019-02-04T00:43:53.010Z,3.83
2019-02-04T00:46:22.512Z,3.77
2019-02-04T00:48:52.095Z,3.60
2019-02-04T00:51:21.762Z,4.67
2019-02-04T00:53:51.297Z,4.33
2019-02-04T00:56:20.901Z,4.58
2019-02-04T00:58:50.715Z,4.20
2019-02-04T01:01:20.202Z,3.37
2019-02-04T01:03:49.755Z,4.08
2019-02-04T01:06:19.435Z,4.05
2019-02-04T01:08:50.185Z,3.55
2019-02-04T01:11:19.827Z,3.95
2019-02-04T01:13:49.409Z,3.40
2019-02-04T01:16:19.058Z,4.20
2019-02-04T01:18:48.803Z,3.45
2019-02-04T01:21:18.535Z,3.95
2019-02-04T01:23:48.010Z,4.00
2019-02-04T01:26:17.562Z,3.95
2019-02-04T01:28:47.032Z,3.40
2019-02-04T01:31:16.566Z,4.00
2019-02-04T01:33:46.283Z,3.77
2019-02-04T01:36:15.856Z,3.50
2019-02-04T01:38:45.509Z,2.65
2019-02-04T01:41:15.197Z,3.20
2019-02-04T01:43:44.719Z,4.15
2019-02-04T01:46:14.180Z,3.87
2019-02-04T01:48:43.815Z,3.52
2019-02-04T01:51:13.288Z,3.60
2019-02-04T01:53:42.770Z,4.53
2019-02-04T01:56:12.450Z,3.30
2019-02-04T01:58:42.114Z,3.47
2019-02-04T02:01:11.698Z,4.10
2019-02-04T02:03:41.274Z,3.30
2019-02-04T02:06:10.966Z,3.70
2019-02-04T02:08:40.977Z,3.72
2019-02-04T02:11:10.810Z,3.50
2019-02-04T02:13:40.505Z,3.98
2019-02-04T02:16:10.023Z,4.12
2019-02-04T02:18:39.737Z,4.22
2019-02-04T02:21:09.345Z,3.67
2019-02-04T02:23:38.878Z,3.70
2019-02-04T02:26:08.410Z,3.77
2019-02-04T02:28:38.255Z,4.25
2019-02-04T02:31:07.828Z,3.27
2019-02-04T02:33:37.393Z,4.17
2019-02-04T02:36:07.356Z,4.25
2019-02-04T02:38:36.824Z,3.00
2019-02-04T02:41:06.320Z,3.75
2019-02-04T02:43:35.767Z,3.17
2019-02-04T02:46:05.905Z,3.95
2019-02-04T02:48:35.636Z,3.87
2019-02-04T02:51:05.578Z,4.00
2019-02-04T02:53:35.056Z,3.50
2019-02-04T02:56:04.823Z,4.10
2019-02-04T02:58:34.338Z,3.40
2019-02-04T03:01:03.989Z,3.17
2019-02-04T03:03:33.785Z,3.65
2019-02-04T03:06:03.236Z,3.80
2019-02-04T03:08:32.723Z,3.30
2019-02-04T03:11:02.224Z,3.70
2019-02-04T03:13:31.882Z,5.08
2019-02-04T03:16:01.368Z,3.50
2019-02-04T03:18:31.104Z,3.75
2019-02-04T03:21:00.642Z,4.53
2019-02-04T03:23:30.099Z,3.98
2019-02-04T03:25:59.574Z,3.62
2019-02-04T03:28:29.049Z,5.70
2019-02-04T03:30:58.586Z,5.10
2019-02-04T03:33:28.278Z,4.30
2019-02-04T03:35:57.729Z,4.42
2019-02-04T03:38:27.228Z,5.67
2019-02-04T03:40:56.697Z,5.45
2019-02-04T03:43:26.179Z,5.50
2019-02-04T03:45:55.795Z,4.95
2019-02-04T03:48:25.353Z,4.50
2019-02-04T03:50:54.887Z,4.60
2019-02-04T03:53:24.369Z,4.20
2019-02-04T03:55:53.827Z,4.67
2019-02-04T03:58:23.357Z,4.30
2019-02-04T04:00:53.303Z,4.35
2019-02-04T04:03:22.789Z,3.80
2019-02-04T04:05:52.246Z,4.03
2019-02-04T04:08:21.834Z,4.58
2019-02-04T04:10:51.293Z,4.83
2019-02-04T04:13:20.767Z,4.53
2019-02-04T04:15:50.255Z,5.03
2019-02-04T04:18:19.737Z,3.80
2019-02-04T04:20:49.219Z,4.28
2019-02-04T04:23:18.708Z,4.67
2019-02-04T04:25:48.224Z,5.37
2019-02-04T04:28:17.664Z,4.50
2019-02-04T04:30:47.123Z,3.45
2019-02-04T04:33:16.925Z,3.70
2019-02-04T04:35:46.392Z,4.35
2019-02-04T04:38:16.033Z,4.72
2019-02-04T04:40:45.490Z,4.25
2019-02-04T04:43:15.227Z,4.30
2019-02-04T04:45:44.723Z,4.28
2019-02-04T04:48:14.201Z,4.65
2019-02-04T04:50:43.717Z,3.55
2019-02-04T04:53:13.222Z,3.83
2019-02-04T04:55:42.804Z,3.98
2019-02-04T04:58:12.376Z,4.15
2019-02-04T05:00:41.897Z,5.22
2019-02-04T05:03:11.677Z,3.83
2019-02-04T05:05:41.132Z,3.65
2019-02-04T05:08:10.636Z,4.42
2019-02-04T05:10:40.091Z,4.10
2019-02-04T05:13:09.580Z,3.50
2019-02-04T05:15:39.097Z,4.25
2019-02-04T05:18:08.624Z,4.95
2019-02-04T05:20:38.084Z,3.83
2019-02-04T05:23:07.531Z,4.35
2019-02-04T05:25:37.401Z,4.72
2019-02-04T05:28:07.936Z,4.03
2019-02-04T05:30:37.414Z,4.00
2019-02-04T05:33:06.879Z,3.87
2019-02-04T05:35:36.373Z,3.92
2019-02-04T05:38:07.107Z,3.75
2019-02-04T05:40:36.572Z,3.87
2019-02-04T05:43:06.071Z,3.50
2019-02-04T05:45:35.637Z,4.20
2019-02-04T05:48:05.143Z,5.00
2019-02-04T05:50:34.603Z,3.37
2019-02-04T05:53:04.858Z,3.70
2019-02-04T05:55:34.312Z,4.42
2019-02-04T05:58:03.776Z,4.45
2019-02-04T06:00:42.927Z,6.05
2019-02-04T06:03:12.430Z,4.92
2019-02-04T06:05:42.302Z,5.45
2019-02-04T06:08:11.762Z,4.47
2019-02-04T06:10:41.420Z,4.25
2019-02-04T06:13:10.908Z,4.70
2019-02-04T06:15:41.814Z,4.70
2019-02-04T06:18:11.389Z,5.00
2019-02-04T06:20:41.073Z,4.40
2019-02-04T06:23:10.574Z,4.90
2019-02-04T06:25:40.039Z,5.58
2019-02-04T06:28:09.667Z,5.22
2019-02-04T06:30:39.167Z,4.95
2019-02-04T06:33:08.792Z,5.65
2019-02-04T06:35:38.294Z,4.20
2019-02-04T06:38:10.690Z,4.55
2019-02-04T06:40:40.409Z,5.55
2019-02-04T06:43:09.882Z,5.80
2019-02-04T06:45:39.379Z,5.70
2019-02-04T06:48:09.673Z,4.95
2019-02-04T06:50:39.220Z,5.28
2019-02-04T06:53:08.750Z,5.60
2019-02-04T06:55:38.318Z,5.37
2019-02-04T06:58:10.806Z,4.85
2019-02-04T07:00:40.301Z,5.42
2019-02-04T07:03:09.831Z,5.58
2019-02-04T07:05:43.933Z,5.55
2019-02-04T07:08:10.770Z,4.65
2019-02-04T07:10:40.247Z,5.05
2019-02-04T07:13:09.743Z,4.85
2019-02-04T07:15:39.605Z,5.22
2019-02-04T07:18:09.192Z,4.78
2019-02-04T07:20:38.688Z,4.83
2019-02-04T07:23:08.181Z,4.60
2019-02-04T07:25:37.767Z,4.70
2019-02-04T07:28:08.539Z,4.75
2019-02-04T07:30:38.240Z,4.97
2019-02-04T07:33:07.728Z,4.92
2019-02-04T07:35:37.368Z,4.95
2019-02-04T07:38:06.891Z,5.00
2019-02-04T07:40:36.430Z,5.22
2019-02-04T07:43:05.940Z,4.78
2019-02-04T07:45:35.806Z,4.60
2019-02-04T07:48:05.313Z,4.83
2019-02-04T07:50:34.843Z,4.60
2019-02-04T07:53:04.812Z,4.83
2019-02-04T07:55:34.450Z,4.58
2019-02-04T07:58:04.353Z,5.60
2019-02-04T08:00:34.380Z,5.22
2019-02-04T08:03:03.875Z,5.05
2019-02-04T08:05:33.400Z,4.42
2019-02-04T08:08:02.856Z,4.87
2019-02-04T08:10:32.319Z,4.75
2019-02-04T08:13:02.235Z,4.30
2019-02-04T08:15:40.574Z,4.55
2019-02-04T08:18:13.381Z,4.95
2019-02-04T08:20:43.624Z,4.20
2019-02-04T08:23:13.133Z,5.67
2019-02-04T08:25:42.860Z,5.17
2019-02-04T08:28:12.397Z,5.00
2019-02-04T08:30:41.873Z,4.30
2019-02-04T08:33:11.367Z,5.80
2019-02-04T08:35:40.879Z,4.80
2019-02-04T08:38:13.288Z,5.92
2019-02-04T08:40:42.791Z,5.05
2019-02-04T08:43:12.240Z,5.75
2019-02-04T08:45:41.963Z,4.92
2019-02-04T08:48:11.442Z,4.80
2019-02-04T08:50:40.883Z,6.28
2019-02-04T08:53:10.750Z,5.42
2019-02-04T08:55:40.222Z,5.05
2019-02-04T08:58:09.912Z,4.70
2019-02-04T09:00:39.371Z,5.17
2019-02-04T09:03:08.844Z,5.10
2019-02-04T09:05:38.455Z,5.62
2019-02-04T09:08:07.932Z,5.80
2019-02-04T09:10:37.880Z,4.90
2019-02-04T09:13:07.337Z,4.87
2019-02-04T09:15:36.936Z,6.25
2019-02-04T09:18:07.798Z,5.35
2019-02-04T09:20:37.239Z,5.75
2019-02-04T09:23:06.862Z,5.97
2019-02-04T09:25:36.653Z,5.78
2019-02-04T09:28:07.763Z,5.72
2019-02-04T09:30:37.153Z,5.17
2019-02-04T09:33:06.737Z,5.35
2019-02-04T09:35:36.248Z,5.65
2019-02-04T09:38:05.726Z,5.15
2019-02-04T09:40:41.295Z,5.53
2019-02-04T09:43:11.032Z,5.65
2019-02-04T09:45:42.369Z,5.28
2019-02-04T09:48:17.159Z,5.35
2019-02-04T09:50:47.859Z,6.25
2019-02-04T09:53:17.314Z,5.20
2019-02-04T09:55:46.814Z,6.10
2019-02-04T09:58:16.300Z,4.97
2019-02-04T10:00:45.883Z,7.28
2019-02-04T10:03:17.564Z,5.40
2019-02-04T10:05:48.383Z,5.42
2019-02-04T10:08:18.016Z,6.30
2019-02-04T10:10:47.500Z,5.15
2019-02-04T10:13:16.969Z,5.50
2019-02-04T10:15:46.679Z,5.42
2019-02-04T10:18:16.229Z,5.30
2019-02-04T10:20:45.821Z,6.05
2019-02-04T10:23:15.354Z,4.85
2019-02-04T10:25:45.022Z,4.70
2019-02-04T10:28:15.355Z,5.60
2019-02-04T10:30:45.234Z,5.23
2019-02-04T10:33:15.716Z,4.77
2019-02-04T10:35:45.214Z,5.60
2019-02-04T10:38:16.422Z,5.87
2019-02-04T10:40:46.067Z,6.33
2019-02-04T10:43:15.685Z,4.93
2019-02-04T10:45:45.205Z,4.60
2019-02-04T10:48:14.567Z,4.23
2019-02-04T10:50:46.666Z,5.33
2019-02-04T10:53:15.171Z,4.80
2019-02-04T10:55:44.832Z,4.10
2019-02-04T10:58:15.185Z,4.23
2019-02-04T11:00:45.119Z,4.63
2019-02-04T11:03:14.712Z,4.53
2019-02-04T11:05:44.298Z,4.27
2019-02-04T11:08:14.236Z,3.57
2019-02-04T11:10:46.292Z,3.73
2019-02-04T11:13:18.158Z,3.20
2019-02-04T11:15:48.846Z,3.80
2019-02-04T11:18:19.200Z,3.70
2019-02-04T11:20:57.994Z,3.13
2019-02-04T11:23:23.520Z,2.90
2019-02-04T11:25:55.070Z,3.90
2019-02-04T11:28:24.566Z,3.70
2019-02-04T11:30:59.449Z,3.13
2019-02-04T11:33:31.702Z,3.40
2019-02-04T11:36:03.679Z,4.63
2019-02-04T11:38:33.156Z,2.97
2019-02-04T11:41:02.556Z,3.60
2019-02-04T11:43:31.952Z,3.77
2019-02-04T11:46:01.467Z,4.40
2019-02-04T11:48:31.232Z,3.77
2019-02-04T11:51:09.226Z,4.80
2019-02-04T11:53:33.331Z,3.37
2019-02-04T11:56:03.147Z,3.80
2019-02-04T11:58:32.515Z,4.60
2019-02-04T12:01:01.919Z,5.00
2019-02-04T12:03:31.336Z,3.60
2019-02-04T12:06:00.755Z,3.80
2019-02-04T12:08:30.406Z,3.77
2019-02-04T12:11:04.793Z,2.70
2019-02-04T12:13:35.367Z,3.07
2019-02-04T12:16:06.683Z,2.57
2019-02-04T12:18:36.960Z,2.63
2019-02-04T12:21:07.947Z,2.50
2019-02-04T12:23:39.649Z,2.63
2019-02-04T12:26:11.285Z,2.30
2019-02-04T12:28:42.763Z,2.77
2019-02-04T12:31:15.074Z,2.13
2019-02-04T12:33:45.353Z,2.30
2019-02-04T12:36:14.904Z,3.03
2019-02-04T12:38:44.331Z,2.77
2019-02-04T12:41:13.799Z,3.43
2019-02-04T12:43:43.544Z,2.50
2019-02-04T12:46:13.319Z,2.50
2019-02-04T12:48:42.712Z,1.93
2019-02-04T12:51:12.514Z,1.70
2019-02-04T12:53:42.089Z,2.10
2019-02-04T12:56:11.562Z,1.43
2019-02-04T12:58:41.051Z,2.00
2019-02-04T13:01:10.904Z,1.77
2019-02-04T13:03:40.510Z,2.50
2019-02-04T13:06:13.294Z,1.90
2019-02-04T13:08:44.974Z,1.93
2019-02-04T13:11:14.351Z,2.00
2019-02-04T13:13:43.938Z,2.30
2019-02-04T13:16:13.731Z,2.03
2019-02-04T13:18:43.495Z,2.30
2019-02-04T13:21:12.871Z,2.60
2019-02-04T13:23:42.267Z,2.07
2019-02-04T13:26:11.816Z,2.10
2019-02-04T13:28:41.179Z,2.03
2019-02-04T13:31:10.589Z,2.73
2019-02-04T13:33:40.008Z,2.10
2019-02-04T13:36:09.742Z,2.50
2019-02-04T13:38:40.510Z,2.40
2019-02-04T13:41:11.375Z,4.40
2019-02-04T13:43:41.214Z,2.10
2019-02-04T13:46:10.599Z,3.10
2019-02-04T13:48:40.382Z,2.00
2019-02-04T13:51:09.780Z,1.83
2019-02-04T13:53:39.570Z,2.67
2019-02-04T13:56:09.076Z,3.30
2019-02-04T13:58:38.685Z,2.73
2019-02-04T14:01:08.294Z,2.70
2019-02-04T14:03:37.800Z,1.90
2019-02-04T14:06:09.403Z,2.60
2019-02-04T14:08:39.071Z,3.17
2019-02-04T14:11:09.773Z,2.57
2019-02-04T14:13:39.814Z,3.20
2019-02-04T14:16:09.745Z,2.40
2019-02-04T14:18:39.454Z,3.17
2019-02-04T14:21:09.160Z,3.27
2019-02-04T14:23:38.985Z,3.30
2019-02-04T14:26:08.575Z,1.93
2019-02-04T14:28:38.401Z,3.17
2019-02-04T14:31:07.900Z,3.20
2019-02-04T14:33:37.500Z,3.23
2019-02-04T14:36:07.114Z,2.93
2019-02-04T14:38:37.127Z,4.23
2019-02-04T14:41:06.878Z,3.10
2019-02-04T14:43:49.008Z,3.17
2019-02-04T14:46:46.645Z,3.80
2019-02-04T14:49:37.923Z,2.73
2019-02-04T14:52:51.358Z,3.20
2019-02-04T14:55:36.237Z,2.70
2019-02-04T14:58:49.973Z,3.33
2019-02-04T15:02:13.261Z,3.80
2019-02-04T15:05:51.249Z,2.97
2019-02-04T15:08:39.699Z,2.87
2019-02-04T15:11:37.318Z,3.27
2019-02-04T15:14:59.192Z,3.43
2019-02-04T15:18:11.707Z,3.70
2019-02-04T15:21:15.729Z,3.40
2019-02-04T15:24:10.838Z,4.60
2019-02-04T15:27:10.446Z,4.40
2019-02-04T15:29:53.428Z,6.13
2019-02-04T15:33:11.293Z,5.23
2019-02-04T15:36:19.515Z,2.80
2019-02-04T15:39:31.519Z,3.17
2019-02-04T15:42:40.800Z,4.20
2019-02-04T15:45:56.764Z,2.93
2019-02-04T15:48:34.527Z,3.07
2019-02-04T15:51:15.625Z,3.10
2019-02-04T15:53:45.138Z,3.53
2019-02-04T15:56:14.952Z,2.80
2019-02-04T15:58:44.578Z,2.90
2019-02-04T16:01:14.330Z,2.97
2019-02-04T16:03:44.017Z,2.90
2019-02-04T16:06:13.485Z,2.80
2019-02-04T16:08:42.994Z,3.40
2019-02-04T16:11:12.493Z,3.10
2019-02-04T16:13:42.207Z,2.90
2019-02-04T16:16:11.737Z,3.00
2019-02-04T16:18:41.165Z,2.40
2019-02-04T16:21:10.636Z,3.20
2019-02-04T16:23:40.096Z,2.23
2019-02-04T16:26:09.560Z,2.43
2019-02-04T16:28:39.057Z,2.40
2019-02-04T16:31:08.480Z,2.30
2019-02-04T16:33:37.891Z,2.40
2019-02-04T16:36:07.436Z,3.57
2019-02-04T16:38:36.858Z,2.87
2019-02-04T16:41:06.243Z,2.93
2019-02-04T16:43:35.749Z,2.65
2019-02-04T16:46:05.196Z,2.97
2019-02-04T16:48:34.731Z,2.33
2019-02-04T16:51:11.656Z,2.73
2019-02-04T16:53:35.231Z,2.93
2019-02-04T16:56:04.753Z,3.27
2019-02-04T16:58:34.209Z,3.15
2019-02-04T17:01:03.714Z,3.58
2019-02-04T17:03:33.290Z,3.50
2019-02-04T17:06:03.024Z,4.20
2019-02-04T17:08:32.941Z,3.30
2019-02-04T17:11:02.345Z,4.17
2019-02-04T17:13:31.830Z,3.95
2019-02-04T17:16:01.504Z,4.30
2019-02-04T17:18:31.188Z,3.60
2019-02-04T17:21:00.654Z,4.20
2019-02-04T17:23:30.583Z,3.70
2019-02-04T17:26:00.049Z,5.35
2019-02-04T17:28:29.564Z,5.30
2019-02-04T17:30:59.094Z,4.25
2019-02-04T17:33:28.656Z,4.92
2019-02-04T17:35:58.172Z,4.33
2019-02-04T17:38:27.651Z,3.90
2019-02-04T17:40:57.207Z,3.67
2019-02-04T17:43:26.912Z,3.60
2019-02-04T17:45:56.350Z,3.45
2019-02-04T17:48:26.083Z,4.55
2019-02-04T17:50:55.847Z,6.42
2019-02-04T17:53:33.933Z,5.12
2019-02-04T17:55:56.829Z,4.75
2019-02-04T17:58:26.433Z,4.83
2019-02-04T18:00:55.946Z,4.10
2019-02-04T18:03:25.402Z,3.95
2019-02-04T18:05:55.401Z,4.47
2019-02-04T18:08:24.849Z,4.20
2019-02-04T18:10:54.337Z,4.12
2019-02-04T18:13:23.919Z,3.35
2019-02-04T18:15:53.702Z,4.50
2019-02-04T18:18:23.194Z,4.03
2019-02-04T18:20:52.947Z,4.20
2019-02-04T18:23:22.657Z,5.00
2019-02-04T18:25:52.132Z,3.60
2019-02-04T18:28:21.638Z,3.52
2019-02-04T18:30:51.103Z,4.03
2019-02-04T18:33:20.565Z,3.75
2019-02-04T18:35:50.139Z,4.53
2019-02-04T18:38:19.581Z,5.25
2019-02-04T18:40:49.570Z,5.00
2019-02-04T18:43:19.014Z,4.37
2019-02-04T18:45:48.802Z,4.17
2019-02-04T18:48:18.305Z,4.67
2019-02-04T18:50:48.618Z,5.15
2019-02-04T18:53:18.111Z,4.45
2019-02-04T18:55:47.566Z,4.85
2019-02-04T18:58:17.059Z,4.58
2019-02-04T19:00:46.891Z,4.20
2019-02-04T19:03:17.565Z,5.08
2019-02-04T19:05:47.228Z,4.62
2019-02-04T19:08:16.993Z,4.35
2019-02-04T19:10:46.577Z,4.62
2019-02-04T19:13:16.082Z,4.55
2019-02-04T19:15:45.807Z,5.62
2019-02-04T19:18:18.793Z,5.28
2019-02-04T19:20:47.967Z,5.00
2019-02-04T19:23:17.527Z,4.85
2019-02-04T19:25:47.039Z,6.55
2019-02-04T19:28:16.486Z,4.78
2019-02-04T19:30:56.440Z,5.65
2019-02-04T19:33:25.909Z,5.17
2019-02-04T19:35:57.025Z,5.70
2019-02-04T19:38:26.564Z,5.45
2019-02-04T19:40:56.426Z,5.53
2019-02-04T19:43:25.909Z,4.72
2019-02-04T19:45:55.371Z,5.97
2019-02-04T19:48:24.829Z,6.40
2019-02-04T19:50:54.336Z,6.15
2019-02-04T19:53:23.818Z,5.60
2019-02-04T19:55:53.710Z,6.58
2019-02-04T19:58:23.257Z,5.92
2019-02-04T20:00:52.756Z,7.00
2019-02-04T20:03:22.414Z,6.65
2019-02-04T20:05:51.875Z,6.50
2019-02-04T20:08:21.358Z,6.58
2019-02-04T20:10:51.195Z,6.78
2019-02-04T20:13:20.685Z,7.15
2019-02-04T20:15:50.140Z,6.53
2019-02-04T20:18:19.634Z,6.22
2019-02-04T20:20:49.105Z,7.97
2019-02-04T20:23:18.560Z,6.22
2019-02-04T20:25:48.433Z,7.45
2019-02-04T20:28:17.898Z,6.20
2019-02-04T20:30:47.389Z,7.87
2019-02-04T20:33:16.950Z,7.17
2019-02-04T20:35:46.450Z,6.75
2019-02-04T20:38:15.910Z,6.60
2019-02-04T20:40:45.750Z,6.20
2019-02-04T20:43:15.235Z,7.92
2019-02-04T20:45:44.716Z,7.40
2019-02-04T20:48:15.704Z,8.55
2019-02-04T20:50:46.701Z,8.20
2019-02-04T20:53:16.393Z,6.90
2019-02-04T20:55:46.043Z,7.87
2019-02-04T20:58:15.589Z,7.45
2019-02-04T21:00:45.065Z,7.00
2019-02-04T21:03:14.614Z,7.35
2019-02-04T21:05:44.126Z,7.67
2019-02-04T21:08:13.612Z,7.72
2019-02-04T21:10:43.079Z,7.60
2019-02-04T21:13:12.701Z,8.25
2019-02-04T21:15:42.264Z,7.83
2019-02-04T21:18:11.900Z,7.83
2019-02-04T21:20:41.367Z,8.78
2019-02-04T21:23:10.921Z,8.68
2019-02-04T21:25:40.377Z,8.90
2019-02-04T21:28:09.839Z,9.15
2019-02-04T21:30:41.378Z,8.98
2019-02-04T21:33:10.975Z,9.23
2019-02-04T21:35:40.800Z,8.03
2019-02-04T21:38:10.651Z,8.55
2019-02-04T21:40:40.231Z,8.58
2019-02-04T21:43:09.945Z,8.68
2019-02-04T21:45:39.440Z,8.60
2019-02-04T21:48:10.139Z,8.88
2019-02-04T21:50:39.817Z,8.50
2019-02-04T21:53:09.722Z,9.38
2019-02-04T21:55:39.189Z,8.95
2019-02-04T21:58:10.285Z,10.08
2019-02-04T22:00:40.954Z,8.83
2019-02-04T22:03:10.621Z,10.85
2019-02-04T22:05:40.208Z,9.60
2019-02-04T22:08:09.804Z,10.28
2019-02-04T22:10:39.728Z,9.50
2019-02-04T22:13:09.205Z,10.23
2019-02-04T22:15:38.953Z,8.70
2019-02-04T22:18:08.654Z,9.18
2019-02-04T22:20:38.512Z,8.75
2019-02-04T22:23:08.017Z,9.30
2019-02-04T22:25:37.581Z,8.13
2019-02-04T22:28:07.311Z,8.90
2019-02-04T22:30:36.793Z,7.85
2019-02-04T22:33:06.373Z,9.50
2019-02-04T22:35:35.863Z,8.25
2019-02-04T22:38:05.983Z,9.40
2019-02-04T22:40:35.614Z,8.13
2019-02-04T22:43:05.098Z,8.20
2019-02-04T22:45:34.720Z,8.83
2019-02-04T22:48:04.525Z,8.10
2019-02-04T22:50:33.990Z,8.93
2019-02-04T22:53:03.641Z,7.42
2019-02-04T22:55:33.318Z,8.35
2019-02-04T22:58:02.814Z,8.65
2019-02-04T23:01:31.574Z,7.83
2019-02-04T23:04:01.031Z,8.20
2019-02-04T23:06:30.739Z,8.18
2019-02-04T23:09:00.687Z,7.55
2019-02-04T23:11:30.298Z,7.15
2019-02-04T23:13:59.770Z,7.28
2019-02-04T23:16:29.247Z,8.38
2019-02-04T23:18:58.751Z,8.75
2019-02-04T23:21:28.209Z,8.75
2019-02-04T23:23:57.987Z,7.85
2019-02-04T23:26:27.505Z,7.40
2019-02-04T23:28:57.007Z,7.42
2019-02-04T23:31:26.489Z,6.80
2019-02-04T23:33:55.974Z,9.03
2019-02-04T23:36:25.958Z,6.97
2019-02-04T23:38:55.491Z,8.80
2019-02-04T23:41:24.965Z,8.25
2019-02-04T23:43:54.597Z,6.50
2019-02-04T23:46:24.198Z,7.90
2019-02-04T23:48:53.713Z,7.87
2019-02-04T23:51:23.309Z,7.80
2019-02-04T23:53:53.285Z,7.85
2019-02-04T23:56:22.769Z,6.62
2019-02-04T23:58:52.262Z,7.42
